Terminal Aerodrome Forecast
Issued by NWS Cleveland, OH

Home | Current Version | Previous Version | Text Only | Print | Product List | Glossary On
Versions: 1 2 3 4 5 6 7 8 9 10 11 12 13 14 15 16 17 18 19 20
000
FTUS41 KCLE 310400 AAA
TAFERI
TAF AMD
KERI 310428Z 3104/3124 29008KT P6SM OVC035
      TEMPO 3104/3108 3SM -SHSN OVC025
     FM311200 20006KT P6SM BKN120
     FM312300 22010KT P6SM OVC070=

USA.gov is the U.S. government's official web portal to all federal, state and local government web resources and services.